sensor_id;sensor_type;location;lat;lon;timestamp;temperature;humidity
983;DHT22;480;48.124;11.578;2022-12-07T00:00:54;4.00;99.90
983;DHT22;480;48.124;11.578;2022-12-07T00:03:21;4.10;99.90
983;DHT22;480;48.124;11.578;2022-12-07T00:05:48;4.10;99.90
983;DHT22;480;48.124;11.578;2022-12-07T00:08:15;4.10;99.90
983;DHT22;480;48.124;11.578;2022-12-07T00:10:42;4.10;99.90
983;DHT22;480;48.124;11.578;2022-12-07T00:13:09;4.10;99.90
983;DHT22;480;48.124;11.578;2022-12-07T00:15:36;4.20;99.90
983;DHT22;480;48.124;11.578;2022-12-07T00:18:05;4.30;99.90
983;DHT22;480;48.124;11.578;2022-12-07T00:20:32;4.30;99.90
983;DHT22;480;48.124;11.578;2022-12-07T00:23:00;4.30;99.90
983;DHT22;480;48.124;11.578;2022-12-07T00:25:28;4.30;99.90
983;DHT22;480;48.124;11.578;2022-12-07T00:27:59;4.30;99.90
983;DHT22;480;48.124;11.578;2022-12-07T00:30:26;4.40;99.90
983;DHT22;480;48.124;11.578;2022-12-07T00:32:53;4.30;99.90
983;DHT22;480;48.124;11.578;2022-12-07T00:35:22;4.30;99.90
983;DHT22;480;48.124;11.578;2022-12-07T00:37:49;4.40;99.90
983;DHT22;480;48.124;11.578;2022-12-07T00:40:16;4.40;99.90
983;DHT22;480;48.124;11.578;2022-12-07T00:42:43;4.50;99.90
983;DHT22;480;48.124;11.578;2022-12-07T00:45:10;4.40;99.90
983;DHT22;480;48.124;11.578;2022-12-07T00:47:38;4.40;99.90
983;DHT22;480;48.124;11.578;2022-12-07T00:50:06;4.30;99.90
983;DHT22;480;48.124;11.578;2022-12-07T00:52:35;4.30;99.90
983;DHT22;480;48.124;11.578;2022-12-07T00:55:02;4.30;99.90
983;DHT22;480;48.124;11.578;2022-12-07T00:57:30;4.40;99.90
983;DHT22;480;48.124;11.578;2022-12-07T00:59:57;4.40;99.90
983;DHT22;480;48.124;11.578;2022-12-07T01:02:26;4.40;99.90
983;DHT22;480;48.124;11.578;2022-12-07T01:04:53;4.40;99.90
983;DHT22;480;48.124;11.578;2022-12-07T01:07:20;4.40;99.90
983;DHT22;480;48.124;11.578;2022-12-07T01:09:49;4.30;99.90
983;DHT22;480;48.124;11.578;2022-12-07T01:12:16;4.30;99.90
983;DHT22;480;48.124;11.578;2022-12-07T01:14:43;4.20;99.90
983;DHT22;480;48.124;11.578;2022-12-07T01:17:10;4.10;99.90
983;DHT22;480;48.124;11.578;2022-12-07T01:19:37;4.10;99.90
983;DHT22;480;48.124;11.578;2022-12-07T01:22:04;4.10;99.90
983;DHT22;480;48.124;11.578;2022-12-07T01:24:32;4.10;99.90
983;DHT22;480;48.124;11.578;2022-12-07T01:27:00;4.20;99.90
983;DHT22;480;48.124;11.578;2022-12-07T01:29:27;4.20;99.90
983;DHT22;480;48.124;11.578;2022-12-07T01:31:54;4.20;99.90
983;DHT22;480;48.124;11.578;2022-12-07T01:34:21;4.10;99.90
983;DHT22;480;48.124;11.578;2022-12-07T01:36:48;4.00;99.90
983;DHT22;480;48.124;11.578;2022-12-07T01:39:15;4.00;99.90
983;DHT22;480;48.124;11.578;2022-12-07T01:41:42;4.00;99.90
983;DHT22;480;48.124;11.578;2022-12-07T01:44:14;4.10;99.90
983;DHT22;480;48.124;11.578;2022-12-07T01:46:43;4.10;99.90
983;DHT22;480;48.124;11.578;2022-12-07T01:49:16;4.00;99.90
983;DHT22;480;48.124;11.578;2022-12-07T01:51:46;4.10;99.90
983;DHT22;480;48.124;11.578;2022-12-07T01:54:14;4.10;99.90
983;DHT22;480;48.124;11.578;2022-12-07T01:56:49;4.20;99.90
983;DHT22;480;48.124;11.578;2022-12-07T01:59:21;4.30;99.90
983;DHT22;480;48.124;11.578;2022-12-07T02:01:50;4.40;99.90
983;DHT22;480;48.124;11.578;2022-12-07T02:04:18;4.50;99.90
983;DHT22;480;48.124;11.578;2022-12-07T02:06:45;4.50;99.90
983;DHT22;480;48.124;11.578;2022-12-07T02:09:13;4.40;99.90
983;DHT22;480;48.124;11.578;2022-12-07T02:11:41;4.40;99.90
983;DHT22;480;48.124;11.578;2022-12-07T02:14:08;4.30;99.90
983;DHT22;480;48.124;11.578;2022-12-07T02:16:43;4.20;99.90
983;DHT22;480;48.124;11.578;2022-12-07T02:19:37;4.20;99.90
983;DHT22;480;48.124;11.578;2022-12-07T02:22:24;4.10;99.90
983;DHT22;480;48.124;11.578;2022-12-07T02:24:59;4.00;99.90
983;DHT22;480;48.124;11.578;2022-12-07T02:27:38;4.00;99.90
983;DHT22;480;48.124;11.578;2022-12-07T02:30:10;4.10;99.90
983;DHT22;480;48.124;11.578;2022-12-07T02:32:44;4.20;99.90
983;DHT22;480;48.124;11.578;2022-12-07T02:35:17;4.20;99.90
983;DHT22;480;48.124;11.578;2022-12-07T02:37:53;4.10;99.90
983;DHT22;480;48.124;11.578;2022-12-07T02:40:25;4.20;99.90
983;DHT22;480;48.124;11.578;2022-12-07T02:43:00;4.30;99.90
983;DHT22;480;48.124;11.578;2022-12-07T02:45:31;4.30;99.90
983;DHT22;480;48.124;11.578;2022-12-07T02:48:01;4.20;99.90
983;DHT22;480;48.124;11.578;2022-12-07T02:50:29;4.20;99.90
983;DHT22;480;48.124;11.578;2022-12-07T02:52:56;4.20;99.90
983;DHT22;480;48.124;11.578;2022-12-07T02:55:28;4.30;99.90
983;DHT22;480;48.124;11.578;2022-12-07T02:58:13;4.30;99.90
983;DHT22;480;48.124;11.578;2022-12-07T03:00:52;4.40;99.90
983;DHT22;480;48.124;11.578;2022-12-07T03:03:22;4.40;99.90
983;DHT22;480;48.124;11.578;2022-12-07T03:05:59;4.50;99.90
983;DHT22;480;48.124;11.578;2022-12-07T03:08:35;4.50;99.90
983;DHT22;480;48.124;11.578;2022-12-07T03:11:05;4.40;99.90
983;DHT22;480;48.124;11.578;2022-12-07T03:13:37;4.40;99.90
983;DHT22;480;48.124;11.578;2022-12-07T03:16:14;4.50;99.90
983;DHT22;480;48.124;11.578;2022-12-07T03:18:45;4.60;99.90
983;DHT22;480;48.124;11.578;2022-12-07T03:21:16;4.70;99.90
983;DHT22;480;48.124;11.578;2022-12-07T03:23:47;4.70;99.90
983;DHT22;480;48.124;11.578;2022-12-07T03:26:17;4.70;99.90
983;DHT22;480;48.124;11.578;2022-12-07T03:28:50;4.80;99.90
983;DHT22;480;48.124;11.578;2022-12-07T03:31:22;4.80;99.90
983;DHT22;480;48.124;11.578;2022-12-07T03:33:57;4.90;99.90
983;DHT22;480;48.124;11.578;2022-12-07T03:36:30;4.80;99.90
983;DHT22;480;48.124;11.578;2022-12-07T03:39:04;4.80;99.90
983;DHT22;480;48.124;11.578;2022-12-07T03:41:35;4.90;99.90
983;DHT22;480;48.124;11.578;2022-12-07T03:44:04;4.90;99.90
983;DHT22;480;48.124;11.578;2022-12-07T03:46:37;4.80;99.90
983;DHT22;480;48.124;11.578;2022-12-07T03:49:13;4.70;99.90
983;DHT22;480;48.124;11.578;2022-12-07T03:51:51;4.80;99.90
983;DHT22;480;48.124;11.578;2022-12-07T03:54:23;4.90;99.90
983;DHT22;480;48.124;11.578;2022-12-07T03:56:52;4.80;99.90
983;DHT22;480;48.124;11.578;2022-12-07T03:59:21;4.90;99.90
983;DHT22;480;48.124;11.578;2022-12-07T04:01:54;5.00;99.90
983;DHT22;480;48.124;11.578;2022-12-07T04:04:22;5.10;99.90
983;DHT22;480;48.124;11.578;2022-12-07T04:06:50;5.00;99.90
983;DHT22;480;48.124;11.578;2022-12-07T04:09:18;4.90;99.90
983;DHT22;480;48.124;11.578;2022-12-07T04:11:45;4.90;99.90
983;DHT22;480;48.124;11.578;2022-12-07T04:14:12;4.90;99.90
983;DHT22;480;48.124;11.578;2022-12-07T04:16:48;4.70;99.90
983;DHT22;480;48.124;11.578;2022-12-07T04:19:18;4.80;99.90
983;DHT22;480;48.124;11.578;2022-12-07T04:21:45;4.80;99.90
983;DHT22;480;48.124;11.578;2022-12-07T04:24:14;4.70;99.90
983;DHT22;480;48.124;11.578;2022-12-07T04:26:42;4.80;99.90
983;DHT22;480;48.124;11.578;2022-12-07T04:29:10;4.70;99.90
983;DHT22;480;48.124;11.578;2022-12-07T04:31:38;4.50;99.90
983;DHT22;480;48.124;11.578;2022-12-07T04:34:05;4.40;99.90
983;DHT22;480;48.124;11.578;2022-12-07T04:36:34;4.40;99.90
983;DHT22;480;48.124;11.578;2022-12-07T04:39:01;4.30;99.90
983;DHT22;480;48.124;11.578;2022-12-07T04:41:28;4.50;99.90
983;DHT22;480;48.124;11.578;2022-12-07T04:43:56;4.50;99.90
983;DHT22;480;48.124;11.578;2022-12-07T04:46:24;4.30;99.90
983;DHT22;480;48.124;11.578;2022-12-07T04:48:51;4.40;99.90
983;DHT22;480;48.124;11.578;2022-12-07T04:51:21;4.20;99.90
983;DHT22;480;48.124;11.578;2022-12-07T04:53:50;4.20;99.90
983;DHT22;480;48.124;11.578;2022-12-07T04:56:18;4.10;99.90
983;DHT22;480;48.124;11.578;2022-12-07T04:58:46;4.10;99.90
983;DHT22;480;48.124;11.578;2022-12-07T05:01:14;4.10;99.90
983;DHT22;480;48.124;11.578;2022-12-07T05:03:41;4.00;99.90
983;DHT22;480;48.124;11.578;2022-12-07T05:06:09;3.90;99.90
983;DHT22;480;48.124;11.578;2022-12-07T05:08:37;3.80;99.90
983;DHT22;480;48.124;11.578;2022-12-07T05:11:06;3.80;99.90
983;DHT22;480;48.124;11.578;2022-12-07T05:13:34;4.00;99.90
983;DHT22;480;48.124;11.578;2022-12-07T05:16:01;3.90;99.90
983;DHT22;480;48.124;11.578;2022-12-07T05:18:28;3.90;99.90
983;DHT22;480;48.124;11.578;2022-12-07T05:20:55;3.90;99.90
983;DHT22;480;48.124;11.578;2022-12-07T05:23:22;3.80;99.90
983;DHT22;480;48.124;11.578;2022-12-07T05:25:49;3.70;99.90
983;DHT22;480;48.124;11.578;2022-12-07T05:28:17;3.70;99.90
983;DHT22;480;48.124;11.578;2022-12-07T05:30:44;3.70;99.90
983;DHT22;480;48.124;11.578;2022-12-07T05:33:12;3.70;99.90
983;DHT22;480;48.124;11.578;2022-12-07T05:35:39;3.80;99.90
983;DHT22;480;48.124;11.578;2022-12-07T05:38:06;3.80;99.90
983;DHT22;480;48.124;11.578;2022-12-07T05:40:33;3.70;99.90
983;DHT22;480;48.124;11.578;2022-12-07T05:43:00;3.70;99.90
983;DHT22;480;48.124;11.578;2022-12-07T05:45:28;3.60;99.90
983;DHT22;480;48.124;11.578;2022-12-07T05:47:55;3.60;99.90
983;DHT22;480;48.124;11.578;2022-12-07T05:50:22;3.70;99.90
983;DHT22;480;48.124;11.578;2022-12-07T05:52:49;3.60;99.90
983;DHT22;480;48.124;11.578;2022-12-07T05:55:16;3.60;99.90
983;DHT22;480;48.124;11.578;2022-12-07T05:57:43;3.50;99.90
983;DHT22;480;48.124;11.578;2022-12-07T06:00:32;3.50;99.90
983;DHT22;480;48.124;11.578;2022-12-07T06:02:58;3.40;99.90
983;DHT22;480;48.124;11.578;2022-12-07T06:05:25;3.30;99.90
983;DHT22;480;48.124;11.578;2022-12-07T06:07:52;3.30;99.90
983;DHT22;480;48.124;11.578;2022-12-07T06:10:19;3.20;99.90
983;DHT22;480;48.124;11.578;2022-12-07T06:12:46;3.20;99.90
983;DHT22;480;48.124;11.578;2022-12-07T06:15:12;3.30;99.90
983;DHT22;480;48.124;11.578;2022-12-07T06:17:41;3.20;99.90
983;DHT22;480;48.124;11.578;2022-12-07T06:20:08;3.10;99.90
983;DHT22;480;48.124;11.578;2022-12-07T06:22:35;3.20;99.90
983;DHT22;480;48.124;11.578;2022-12-07T06:25:02;3.20;99.90
983;DHT22;480;48.124;11.578;2022-12-07T06:27:30;3.30;99.90
983;DHT22;480;48.124;11.578;2022-12-07T06:29:58;3.30;99.90
983;DHT22;480;48.124;11.578;2022-12-07T06:32:31;3.60;99.90
983;DHT22;480;48.124;11.578;2022-12-07T06:34:59;3.70;99.90
983;DHT22;480;48.124;11.578;2022-12-07T06:37:26;3.60;99.90
983;DHT22;480;48.124;11.578;2022-12-07T06:39:53;3.60;99.90
983;DHT22;480;48.124;11.578;2022-12-07T06:42:20;3.70;99.90
983;DHT22;480;48.124;11.578;2022-12-07T06:44:47;3.70;99.90
983;DHT22;480;48.124;11.578;2022-12-07T06:47:14;3.70;99.90
983;DHT22;480;48.124;11.578;2022-12-07T06:49:41;3.60;99.90
983;DHT22;480;48.124;11.578;2022-12-07T06:52:10;3.50;99.90
983;DHT22;480;48.124;11.578;2022-12-07T06:54:37;3.60;99.90
983;DHT22;480;48.124;11.578;2022-12-07T06:57:04;3.70;99.90
983;DHT22;480;48.124;11.578;2022-12-07T06:59:31;3.60;99.90
983;DHT22;480;48.124;11.578;2022-12-07T07:01:57;3.50;99.90
983;DHT22;480;48.124;11.578;2022-12-07T07:04:25;3.40;99.90
983;DHT22;480;48.124;11.578;2022-12-07T07:06:52;3.50;99.90
983;DHT22;480;48.124;11.578;2022-12-07T07:09:20;3.50;99.90
983;DHT22;480;48.124;11.578;2022-12-07T07:11:47;3.60;99.90
983;DHT22;480;48.124;11.578;2022-12-07T07:14:14;3.60;99.90
983;DHT22;480;48.124;11.578;2022-12-07T07:16:44;3.60;99.90
983;DHT22;480;48.124;11.578;2022-12-07T07:19:11;3.60;99.90
983;DHT22;480;48.124;11.578;2022-12-07T07:21:38;3.40;99.90
983;DHT22;480;48.124;11.578;2022-12-07T07:24:06;3.40;99.90
983;DHT22;480;48.124;11.578;2022-12-07T07:26:34;3.40;99.90
983;DHT22;480;48.124;11.578;2022-12-07T07:29:01;3.40;99.90
983;DHT22;480;48.124;11.578;2022-12-07T07:31:29;3.40;99.90
983;DHT22;480;48.124;11.578;2022-12-07T07:33:57;3.50;99.90
983;DHT22;480;48.124;11.578;2022-12-07T07:36:24;3.60;99.90
983;DHT22;480;48.124;11.578;2022-12-07T07:38:51;3.70;99.90
983;DHT22;480;48.124;11.578;2022-12-07T07:41:18;3.70;99.90
983;DHT22;480;48.124;11.578;2022-12-07T07:43:46;3.70;99.90
983;DHT22;480;48.124;11.578;2022-12-07T07:46:13;3.60;99.90
983;DHT22;480;48.124;11.578;2022-12-07T07:48:40;3.70;99.90
983;DHT22;480;48.124;11.578;2022-12-07T07:51:08;3.80;99.90
983;DHT22;480;48.124;11.578;2022-12-07T07:53:35;3.90;99.90
983;DHT22;480;48.124;11.578;2022-12-07T07:56:02;3.90;99.90
983;DHT22;480;48.124;11.578;2022-12-07T07:58:29;3.90;99.90
983;DHT22;480;48.124;11.578;2022-12-07T08:01:03;3.90;99.90
983;DHT22;480;48.124;11.578;2022-12-07T08:03:30;3.80;99.90
983;DHT22;480;48.124;11.578;2022-12-07T08:05:57;3.70;99.90
983;DHT22;480;48.124;11.578;2022-12-07T08:08:24;3.60;99.90
983;DHT22;480;48.124;11.578;2022-12-07T08:10:51;3.70;99.90
983;DHT22;480;48.124;11.578;2022-12-07T08:13:18;3.70;99.90
983;DHT22;480;48.124;11.578;2022-12-07T08:15:47;3.70;99.90
983;DHT22;480;48.124;11.578;2022-12-07T08:18:15;3.70;99.90
983;DHT22;480;48.124;11.578;2022-12-07T08:20:43;3.80;99.90
983;DHT22;480;48.124;11.578;2022-12-07T08:23:10;3.90;99.90
983;DHT22;480;48.124;11.578;2022-12-07T08:25:37;3.80;99.90
983;DHT22;480;48.124;11.578;2022-12-07T08:28:05;3.80;99.90
983;DHT22;480;48.124;11.578;2022-12-07T08:30:32;4.00;99.90
983;DHT22;480;48.124;11.578;2022-12-07T08:32:59;4.10;99.90
983;DHT22;480;48.124;11.578;2022-12-07T08:35:27;4.00;99.90
983;DHT22;480;48.124;11.578;2022-12-07T08:37:54;4.00;99.90
983;DHT22;480;48.124;11.578;2022-12-07T08:40:23;4.00;99.90
983;DHT22;480;48.124;11.578;2022-12-07T08:42:50;4.00;99.90
983;DHT22;480;48.124;11.578;2022-12-07T08:45:18;4.00;99.90
983;DHT22;480;48.124;11.578;2022-12-07T08:47:49;4.00;99.90
983;DHT22;480;48.124;11.578;2022-12-07T08:50:17;3.90;99.90
983;DHT22;480;48.124;11.578;2022-12-07T08:52:49;4.10;99.90
983;DHT22;480;48.124;11.578;2022-12-07T08:55:18;4.10;99.90
983;DHT22;480;48.124;11.578;2022-12-07T08:57:45;4.10;99.90
983;DHT22;480;48.124;11.578;2022-12-07T09:00:15;4.10;99.90
983;DHT22;480;48.124;11.578;2022-12-07T09:02:43;4.10;99.90
983;DHT22;480;48.124;11.578;2022-12-07T09:05:11;4.30;99.90
983;DHT22;480;48.124;11.578;2022-12-07T09:07:41;4.30;99.90
983;DHT22;480;48.124;11.578;2022-12-07T09:10:11;4.40;99.90
983;DHT22;480;48.124;11.578;2022-12-07T09:12:38;4.40;99.90
983;DHT22;480;48.124;11.578;2022-12-07T09:15:06;4.50;99.90
983;DHT22;480;48.124;11.578;2022-12-07T09:17:34;4.50;99.90
983;DHT22;480;48.124;11.578;2022-12-07T09:20:02;4.50;99.90
983;DHT22;480;48.124;11.578;2022-12-07T09:22:29;4.50;99.90
983;DHT22;480;48.124;11.578;2022-12-07T09:24:57;4.50;99.90
983;DHT22;480;48.124;11.578;2022-12-07T09:27:25;4.60;99.90
983;DHT22;480;48.124;11.578;2022-12-07T09:29:53;4.70;99.90
983;DHT22;480;48.124;11.578;2022-12-07T09:32:20;4.60;99.90
983;DHT22;480;48.124;11.578;2022-12-07T09:34:47;4.60;99.90
983;DHT22;480;48.124;11.578;2022-12-07T09:37:14;4.60;99.90
983;DHT22;480;48.124;11.578;2022-12-07T09:39:41;4.70;99.90
983;DHT22;480;48.124;11.578;2022-12-07T09:42:08;4.90;99.90
983;DHT22;480;48.124;11.578;2022-12-07T09:44:40;4.90;99.90
983;DHT22;480;48.124;11.578;2022-12-07T09:47:09;4.80;99.90
983;DHT22;480;48.124;11.578;2022-12-07T09:49:36;4.80;99.90
983;DHT22;480;48.124;11.578;2022-12-07T09:52:17;4.70;99.90
983;DHT22;480;48.124;11.578;2022-12-07T09:54:47;4.70;99.90
983;DHT22;480;48.124;11.578;2022-12-07T09:57:15;4.70;99.90
983;DHT22;480;48.124;11.578;2022-12-07T09:59:46;4.80;99.90
983;DHT22;480;48.124;11.578;2022-12-07T10:02:28;5.00;99.90
983;DHT22;480;48.124;11.578;2022-12-07T10:04:59;4.90;99.90
983;DHT22;480;48.124;11.578;2022-12-07T10:07:26;4.90;99.90
983;DHT22;480;48.124;11.578;2022-12-07T10:09:53;4.80;99.90
983;DHT22;480;48.124;11.578;2022-12-07T10:12:20;4.90;99.90
983;DHT22;480;48.124;11.578;2022-12-07T10:14:57;5.00;99.90
983;DHT22;480;48.124;11.578;2022-12-07T10:17:34;4.90;99.90
983;DHT22;480;48.124;11.578;2022-12-07T10:20:20;5.00;99.90
983;DHT22;480;48.124;11.578;2022-12-07T10:23:02;5.10;99.90
983;DHT22;480;48.124;11.578;2022-12-07T10:25:31;5.20;99.90
983;DHT22;480;48.124;11.578;2022-12-07T10:28:02;5.20;99.90
983;DHT22;480;48.124;11.578;2022-12-07T10:30:31;5.10;99.90
983;DHT22;480;48.124;11.578;2022-12-07T10:32:59;5.10;99.90
983;DHT22;480;48.124;11.578;2022-12-07T10:35:28;5.10;99.90
983;DHT22;480;48.124;11.578;2022-12-07T10:37:57;5.20;99.90
983;DHT22;480;48.124;11.578;2022-12-07T10:40:30;5.20;99.90
983;DHT22;480;48.124;11.578;2022-12-07T10:43:04;5.40;99.90
983;DHT22;480;48.124;11.578;2022-12-07T10:45:35;5.30;99.90
983;DHT22;480;48.124;11.578;2022-12-07T10:48:11;5.40;99.90
983;DHT22;480;48.124;11.578;2022-12-07T10:50:55;5.30;99.90
983;DHT22;480;48.124;11.578;2022-12-07T10:56:42;5.60;99.90
983;DHT22;480;48.124;11.578;2022-12-07T11:02:24;5.30;99.90
983;DHT22;480;48.124;11.578;2022-12-07T11:05:02;5.40;99.90
983;DHT22;480;48.124;11.578;2022-12-07T11:07:41;5.40;99.90
983;DHT22;480;48.124;11.578;2022-12-07T11:10:15;5.40;99.90
983;DHT22;480;48.124;11.578;2022-12-07T11:12:57;5.40;99.90
983;DHT22;480;48.124;11.578;2022-12-07T11:15:35;5.50;99.90
983;DHT22;480;48.124;11.578;2022-12-07T11:18:13;5.50;99.90
983;DHT22;480;48.124;11.578;2022-12-07T11:20:46;5.30;99.90
983;DHT22;480;48.124;11.578;2022-12-07T11:23:24;5.20;99.90
983;DHT22;480;48.124;11.578;2022-12-07T11:26:04;5.20;99.90
983;DHT22;480;48.124;11.578;2022-12-07T11:28:43;5.20;99.90
983;DHT22;480;48.124;11.578;2022-12-07T11:31:16;5.20;99.90
983;DHT22;480;48.124;11.578;2022-12-07T11:33:53;5.40;99.90
983;DHT22;480;48.124;11.578;2022-12-07T11:36:33;5.30;99.90
983;DHT22;480;48.124;11.578;2022-12-07T11:39:04;5.30;99.90
983;DHT22;480;48.124;11.578;2022-12-07T11:41:35;5.30;99.90
983;DHT22;480;48.124;11.578;2022-12-07T11:44:07;5.30;99.90
983;DHT22;480;48.124;11.578;2022-12-07T11:46:44;5.40;99.90
983;DHT22;480;48.124;11.578;2022-12-07T11:49:20;5.40;99.90
983;DHT22;480;48.124;11.578;2022-12-07T11:51:53;5.40;99.90
983;DHT22;480;48.124;11.578;2022-12-07T11:54:26;5.60;99.90
983;DHT22;480;48.124;11.578;2022-12-07T11:56:59;5.50;99.90
983;DHT22;480;48.124;11.578;2022-12-07T11:59:32;5.50;99.90
983;DHT22;480;48.124;11.578;2022-12-07T12:02:12;5.50;99.90
983;DHT22;480;48.124;11.578;2022-12-07T12:04:51;5.60;99.90
983;DHT22;480;48.124;11.578;2022-12-07T12:07:23;5.60;99.90
983;DHT22;480;48.124;11.578;2022-12-07T12:09:53;5.70;99.90
983;DHT22;480;48.124;11.578;2022-12-07T12:12:38;5.90;99.90
983;DHT22;480;48.124;11.578;2022-12-07T12:15:18;5.80;99.90
983;DHT22;480;48.124;11.578;2022-12-07T12:18:06;5.70;99.90
983;DHT22;480;48.124;11.578;2022-12-07T12:20:42;5.60;99.90
983;DHT22;480;48.124;11.578;2022-12-07T12:23:14;5.50;99.90
983;DHT22;480;48.124;11.578;2022-12-07T12:25:44;5.60;99.90
983;DHT22;480;48.124;11.578;2022-12-07T12:28:25;5.70;99.90
983;DHT22;480;48.124;11.578;2022-12-07T12:31:09;5.80;99.90
983;DHT22;480;48.124;11.578;2022-12-07T12:33:44;5.70;99.90
983;DHT22;480;48.124;11.578;2022-12-07T12:36:23;5.70;99.90
983;DHT22;480;48.124;11.578;2022-12-07T12:41:53;5.90;99.90
983;DHT22;480;48.124;11.578;2022-12-07T12:50:31;5.60;99.90
983;DHT22;480;48.124;11.578;2022-12-07T12:53:16;5.50;99.90
983;DHT22;480;48.124;11.578;2022-12-07T12:56:14;5.60;99.90
983;DHT22;480;48.124;11.578;2022-12-07T12:58:47;5.50;99.90
983;DHT22;480;48.124;11.578;2022-12-07T13:01:44;5.30;99.90
983;DHT22;480;48.124;11.578;2022-12-07T13:04:37;5.40;99.90
983;DHT22;480;48.124;11.578;2022-12-07T13:07:12;5.30;99.90
983;DHT22;480;48.124;11.578;2022-12-07T13:09:44;5.40;99.90
983;DHT22;480;48.124;11.578;2022-12-07T13:12:14;5.50;99.90
983;DHT22;480;48.124;11.578;2022-12-07T13:14:57;5.40;99.90
983;DHT22;480;48.124;11.578;2022-12-07T13:18:00;5.50;99.90
983;DHT22;480;48.124;11.578;2022-12-07T13:23:29;5.60;99.90
983;DHT22;480;48.124;11.578;2022-12-07T13:26:17;5.70;99.90
983;DHT22;480;48.124;11.578;2022-12-07T13:28:47;5.80;99.90
983;DHT22;480;48.124;11.578;2022-12-07T13:31:41;6.00;99.90
983;DHT22;480;48.124;11.578;2022-12-07T13:34:30;6.00;99.90
983;DHT22;480;48.124;11.578;2022-12-07T13:36:58;6.10;99.90
983;DHT22;480;48.124;11.578;2022-12-07T13:39:27;6.00;99.90
983;DHT22;480;48.124;11.578;2022-12-07T13:41:57;6.00;99.90
983;DHT22;480;48.124;11.578;2022-12-07T13:44:26;5.80;99.90
983;DHT22;480;48.124;11.578;2022-12-07T13:46:59;5.90;99.90
983;DHT22;480;48.124;11.578;2022-12-07T13:49:28;5.70;99.90
983;DHT22;480;48.124;11.578;2022-12-07T13:52:14;5.80;99.90
983;DHT22;480;48.124;11.578;2022-12-07T13:54:45;5.80;99.90
983;DHT22;480;48.124;11.578;2022-12-07T13:57:14;5.80;99.90
983;DHT22;480;48.124;11.578;2022-12-07T13:59:41;5.70;99.90
983;DHT22;480;48.124;11.578;2022-12-07T14:02:19;5.70;99.90
983;DHT22;480;48.124;11.578;2022-12-07T14:04:48;5.80;99.90
983;DHT22;480;48.124;11.578;2022-12-07T14:07:21;5.60;99.90
983;DHT22;480;48.124;11.578;2022-12-07T14:09:59;5.50;99.90
983;DHT22;480;48.124;11.578;2022-12-07T14:12:30;5.60;99.90
983;DHT22;480;48.124;11.578;2022-12-07T14:14:59;5.60;99.90
983;DHT22;480;48.124;11.578;2022-12-07T14:17:27;5.50;99.90
983;DHT22;480;48.124;11.578;2022-12-07T14:19:55;5.50;99.90
983;DHT22;480;48.124;11.578;2022-12-07T14:22:29;5.40;99.90
983;DHT22;480;48.124;11.578;2022-12-07T14:25:16;5.30;99.90
983;DHT22;480;48.124;11.578;2022-12-07T14:27:53;5.40;99.90
983;DHT22;480;48.124;11.578;2022-12-07T14:30:22;5.40;99.90
983;DHT22;480;48.124;11.578;2022-12-07T14:32:52;5.40;99.90
983;DHT22;480;48.124;11.578;2022-12-07T14:35:20;5.40;99.90
983;DHT22;480;48.124;11.578;2022-12-07T14:37:48;5.30;99.90
983;DHT22;480;48.124;11.578;2022-12-07T14:40:18;5.30;99.90
983;DHT22;480;48.124;11.578;2022-12-07T14:42:47;5.30;99.90
983;DHT22;480;48.124;11.578;2022-12-07T14:45:19;5.40;99.90
983;DHT22;480;48.124;11.578;2022-12-07T14:47:47;5.30;99.90
983;DHT22;480;48.124;11.578;2022-12-07T14:50:16;5.40;99.90
983;DHT22;480;48.124;11.578;2022-12-07T14:52:46;5.50;99.90
983;DHT22;480;48.124;11.578;2022-12-07T14:55:18;5.50;99.90
983;DHT22;480;48.124;11.578;2022-12-07T14:57:46;5.50;99.90
983;DHT22;480;48.124;11.578;2022-12-07T15:00:17;5.40;99.90
983;DHT22;480;48.124;11.578;2022-12-07T15:02:45;5.40;99.90
983;DHT22;480;48.124;11.578;2022-12-07T15:05:12;5.30;99.90
983;DHT22;480;48.124;11.578;2022-12-07T15:07:40;5.20;99.90
983;DHT22;480;48.124;11.578;2022-12-07T15:10:14;5.30;99.90
983;DHT22;480;48.124;11.578;2022-12-07T15:12:41;5.30;99.90
983;DHT22;480;48.124;11.578;2022-12-07T15:15:09;5.30;99.90
983;DHT22;480;48.124;11.578;2022-12-07T15:17:39;5.30;99.90
983;DHT22;480;48.124;11.578;2022-12-07T15:20:11;5.20;99.90
983;DHT22;480;48.124;11.578;2022-12-07T15:22:39;5.10;99.90
983;DHT22;480;48.124;11.578;2022-12-07T15:25:07;5.10;99.90
983;DHT22;480;48.124;11.578;2022-12-07T15:27:35;4.80;99.90
983;DHT22;480;48.124;11.578;2022-12-07T15:30:03;4.70;99.90
983;DHT22;480;48.124;11.578;2022-12-07T15:32:31;4.90;99.90
983;DHT22;480;48.124;11.578;2022-12-07T15:35:00;4.80;99.90
983;DHT22;480;48.124;11.578;2022-12-07T15:37:28;4.90;99.90
983;DHT22;480;48.124;11.578;2022-12-07T15:39:55;4.90;99.90
983;DHT22;480;48.124;11.578;2022-12-07T15:42:22;4.90;99.90
983;DHT22;480;48.124;11.578;2022-12-07T15:44:49;4.90;99.90
983;DHT22;480;48.124;11.578;2022-12-07T15:47:30;5.00;99.90
983;DHT22;480;48.124;11.578;2022-12-07T15:49:58;4.80;99.90
983;DHT22;480;48.124;11.578;2022-12-07T15:52:27;4.90;99.90
983;DHT22;480;48.124;11.578;2022-12-07T15:54:54;5.00;99.90
983;DHT22;480;48.124;11.578;2022-12-07T15:57:21;5.00;99.90
983;DHT22;480;48.124;11.578;2022-12-07T15:59:48;5.10;99.90
983;DHT22;480;48.124;11.578;2022-12-07T16:02:15;5.00;99.90
983;DHT22;480;48.124;11.578;2022-12-07T16:04:43;5.00;99.90
983;DHT22;480;48.124;11.578;2022-12-07T16:07:10;5.00;99.90
983;DHT22;480;48.124;11.578;2022-12-07T16:09:42;4.90;99.90
983;DHT22;480;48.124;11.578;2022-12-07T16:12:10;4.90;99.90
983;DHT22;480;48.124;11.578;2022-12-07T16:14:38;4.80;99.90
983;DHT22;480;48.124;11.578;2022-12-07T16:17:05;4.80;99.90
983;DHT22;480;48.124;11.578;2022-12-07T16:19:32;4.90;99.90
983;DHT22;480;48.124;11.578;2022-12-07T16:21:59;4.90;99.90
983;DHT22;480;48.124;11.578;2022-12-07T16:24:27;4.90;99.90
983;DHT22;480;48.124;11.578;2022-12-07T16:26:55;4.80;99.90
983;DHT22;480;48.124;11.578;2022-12-07T16:29:26;4.90;99.90
983;DHT22;480;48.124;11.578;2022-12-07T16:31:52;4.80;99.90
983;DHT22;480;48.124;11.578;2022-12-07T16:34:20;4.90;99.90
983;DHT22;480;48.124;11.578;2022-12-07T16:36:46;4.90;99.90
983;DHT22;480;48.124;11.578;2022-12-07T16:39:13;4.90;99.90
983;DHT22;480;48.124;11.578;2022-12-07T16:41:40;4.70;99.90
983;DHT22;480;48.124;11.578;2022-12-07T16:44:11;4.70;99.90
983;DHT22;480;48.124;11.578;2022-12-07T16:46:39;4.70;99.90
983;DHT22;480;48.124;11.578;2022-12-07T16:49:11;4.70;99.90
983;DHT22;480;48.124;11.578;2022-12-07T16:51:38;4.70;99.90
983;DHT22;480;48.124;11.578;2022-12-07T16:54:08;4.70;99.90
983;DHT22;480;48.124;11.578;2022-12-07T16:56:35;4.70;99.90
983;DHT22;480;48.124;11.578;2022-12-07T16:59:02;4.60;99.90
983;DHT22;480;48.124;11.578;2022-12-07T17:01:30;4.70;99.90
983;DHT22;480;48.124;11.578;2022-12-07T17:03:58;4.80;99.90
983;DHT22;480;48.124;11.578;2022-12-07T17:06:27;4.70;99.90
983;DHT22;480;48.124;11.578;2022-12-07T17:08:56;4.80;99.90
983;DHT22;480;48.124;11.578;2022-12-07T17:11:25;4.70;99.90
983;DHT22;480;48.124;11.578;2022-12-07T17:13:52;4.80;99.90